createdAt,value
2024-01-15T00:00:10.913Z,13.8
2024-01-15T00:10:18.260Z,13.7
2024-01-15T00:20:23.322Z,13.5
2024-01-15T00:30:49.531Z,13.4
2024-01-15T00:40:30.550Z,13
2024-01-15T00:50:30.637Z,13.1
2024-01-15T01:00:31.309Z,13.1
2024-01-15T01:10:32.389Z,12.8
2024-01-15T01:20:32.667Z,12.6
2024-01-15T01:30:32.976Z,12.6
2024-01-15T01:40:32.744Z,12.4
2024-01-15T01:50:39.163Z,12.2
2024-01-15T02:00:49.118Z,11.9
2024-01-15T02:10:58.924Z,11.8
2024-01-15T02:21:06.771Z,12
2024-01-15T02:31:16.712Z,12.2
2024-01-15T02:41:26.560Z,12.2
2024-01-15T02:51:36.525Z,12.2
2024-01-15T03:01:36.410Z,11.8
2024-01-15T03:11:46.287Z,12
2024-01-15T03:21:57.325Z,11.7
2024-01-15T03:31:57.305Z,11.8
2024-01-15T03:42:07.177Z,12.4
2024-01-15T03:52:17.088Z,11.5
2024-01-15T04:02:17.192Z,11.5
2024-01-15T04:12:19.611Z,11.3
2024-01-15T04:22:21.744Z,11.1
2024-01-15T04:32:31.607Z,11
2024-01-15T04:42:41.645Z,10.8
2024-01-15T04:52:41.651Z,10.6
2024-01-15T05:02:51.564Z,10.7
2024-01-15T05:13:01.375Z,11
2024-01-15T05:23:11.349Z,10.8
2024-01-15T05:33:11.913Z,10.3
2024-01-15T05:43:21.740Z,10.2
2024-01-15T05:53:31.602Z,10
2024-01-15T06:03:41.579Z,10.3
2024-01-15T06:13:53.180Z,10
2024-01-15T06:23:56.522Z,9.9
2024-01-15T06:33:56.598Z,9.9
2024-01-15T06:43:57.139Z,10
2024-01-15T06:54:05.347Z,10
2024-01-15T07:04:04.950Z,9.8
2024-01-15T07:14:07.553Z,10
2024-01-15T07:24:10.234Z,10
2024-01-15T07:34:14.065Z,10
2024-01-15T07:44:15.708Z,9.9
2024-01-15T07:54:17.585Z,10.1
2024-01-15T08:04:17.910Z,10.1
2024-01-15T08:14:17.957Z,10
2024-01-15T08:24:27.990Z,10
2024-01-15T08:34:29.893Z,10.2
2024-01-15T08:44:46.031Z,10.4
2024-01-15T08:54:38.346Z,11
2024-01-15T09:04:39.618Z,11.2
2024-01-15T09:14:39.616Z,11.2
2024-01-15T09:24:46.006Z,11.5
2024-01-15T09:34:49.504Z,11.9
2024-01-15T09:44:59.230Z,12.2
2024-01-15T09:55:09.414Z,12.3
2024-01-15T10:05:09.731Z,12.5
2024-01-15T10:15:19.226Z,12.8
2024-01-15T10:25:29.158Z,12.8
2024-01-15T10:35:29.129Z,13.2
2024-01-15T10:45:33.547Z,13.5
2024-01-15T10:55:41.897Z,13.6
2024-01-15T11:05:44.311Z,13.9
2024-01-15T11:16:02.244Z,14
2024-01-15T11:26:03.140Z,14.3
2024-01-15T11:36:08.509Z,14.4
2024-01-15T11:46:13.474Z,15.4
2024-01-15T12:06:14.516Z,16
2024-01-15T12:16:28.144Z,16.6
2024-01-15T12:26:19.431Z,16.6
2024-01-15T12:36:20.994Z,16.9
2024-01-15T12:46:22.328Z,16.8
2024-01-15T12:56:23.456Z,16.5
2024-01-15T13:06:24.022Z,16.8
2024-01-15T13:16:33.739Z,16.9
2024-01-15T13:26:35.090Z,17
2024-01-15T13:36:37.048Z,17.1
2024-01-15T13:46:37.184Z,17.1
2024-01-15T13:56:38.210Z,17
2024-01-15T14:06:39.365Z,16.9
2024-01-15T14:16:43.839Z,16.7
2024-01-15T14:26:45.438Z,16.9
2024-01-15T14:36:49.462Z,16.8
2024-01-15T14:46:56.656Z,17.1
2024-01-15T14:56:58.259Z,17.2
2024-01-15T15:17:02.976Z,17.7
2024-01-15T15:27:03.221Z,18.3
2024-01-15T15:37:03.933Z,18.2
2024-01-15T15:47:06.389Z,18.1
2024-01-15T15:57:12.559Z,18.2
2024-01-15T16:07:13.024Z,18.1
2024-01-15T16:23:00.826Z,18.1
2024-01-15T16:27:22.801Z,18.1
2024-01-15T16:37:26.180Z,17.9
2024-01-15T16:47:26.302Z,17.7
2024-01-15T16:57:36.162Z,17.5
2024-01-15T17:07:45.615Z,17.3
2024-01-15T17:18:08.418Z,17.2
2024-01-15T17:28:04.716Z,17.4
2024-01-15T17:38:07.071Z,17.3
2024-01-15T17:48:09.085Z,17.7
2024-01-15T17:58:10.349Z,17.5
2024-01-15T18:08:10.439Z,17.2
2024-01-15T18:18:12.801Z,17.2
2024-01-15T18:28:12.974Z,17.1
2024-01-15T18:38:15.308Z,17.2
2024-01-15T18:48:22.882Z,17
2024-01-15T18:58:30.542Z,17.1
2024-01-15T19:08:35.777Z,16.8
2024-01-15T19:18:37.255Z,16.6
2024-01-15T19:28:39.654Z,16.5
2024-01-15T19:38:46.521Z,16.6
2024-01-15T19:48:45.585Z,15.8
2024-01-15T20:08:51.079Z,15.6
2024-01-15T20:29:02.264Z,15.2
2024-01-15T20:39:03.254Z,15.1
2024-01-15T20:59:10.476Z,15.1
2024-01-15T21:09:11.962Z,15.1
2024-01-15T21:19:15.790Z,15.5
2024-01-15T21:29:24.067Z,14.9
2024-01-15T21:39:25.891Z,14.4
2024-01-15T21:49:31.535Z,14.2
2024-01-15T21:59:34.472Z,14.1
2024-01-15T22:09:45.156Z,14
2024-01-15T22:19:47.667Z,13.8
2024-01-15T22:29:54.899Z,13.6
2024-01-15T22:39:56.507Z,13.5
2024-01-15T22:50:03.214Z,13.3
2024-01-15T23:00:05.351Z,13.2
2024-01-15T23:10:10.584Z,13.1
2024-01-15T23:20:13.692Z,12.9
2024-01-15T23:30:14.946Z,12.6
2024-01-15T23:40:24.766Z,12.5
2024-01-15T23:50:34.600Z,12.7
